createdAt,value
2019-03-28T00:01:31.004Z,24.93
2019-03-28T00:06:36.118Z,32.63
2019-03-28T00:11:41.282Z,27.40
2019-03-28T00:17:05.678Z,30.93
2019-03-28T00:22:12.625Z,28.57
2019-03-28T00:27:17.757Z,27.30
2019-03-28T00:32:23.018Z,25.73
2019-03-28T00:37:28.147Z,26.97
2019-03-28T00:42:33.258Z,26.37
2019-03-28T00:47:38.383Z,30.07
2019-03-28T00:52:43.492Z,26.53
2019-03-28T00:57:48.619Z,28.17
2019-03-28T01:02:53.638Z,28.93
2019-03-28T01:07:59.020Z,25.90
2019-03-28T01:13:04.201Z,25.03
2019-03-28T01:18:09.326Z,21.83
2019-03-28T01:23:14.554Z,23.93
2019-03-28T01:28:19.746Z,23.90
2019-03-28T01:33:24.913Z,26.80
2019-03-28T01:38:30.091Z,30.47
2019-03-28T01:43:35.258Z,26.30
2019-03-28T01:48:40.511Z,32.23
2019-03-28T01:53:45.455Z,25.03
2019-03-28T01:58:50.711Z,26.93
2019-03-28T02:03:55.857Z,22.27
2019-03-28T02:09:01.348Z,24.10
2019-03-28T02:14:06.574Z,26.67
2019-03-28T02:19:11.618Z,21.57
2019-03-28T02:24:16.719Z,20.37
2019-03-28T02:29:21.779Z,20.13
2019-03-28T02:34:26.806Z,20.00
2019-03-28T02:39:31.898Z,19.80
2019-03-28T02:44:37.536Z,21.47
2019-03-28T02:49:43.171Z,21.30
2019-03-28T02:54:48.556Z,21.43
2019-03-28T02:59:54.642Z,18.53
2019-03-28T03:05:03.515Z,22.17
2019-03-28T03:10:08.909Z,19.17
2019-03-28T03:15:14.422Z,18.83
2019-03-28T03:20:19.822Z,18.20
2019-03-28T03:25:24.949Z,19.20
2019-03-28T03:30:31.382Z,17.73
2019-03-28T03:35:37.153Z,17.13
2019-03-28T03:40:42.776Z,16.23
2019-03-28T03:45:48.434Z,15.47
2019-03-28T03:50:53.906Z,15.43
2019-03-28T03:55:59.271Z,14.67
2019-03-28T04:01:04.818Z,15.60
2019-03-28T04:06:10.345Z,14.80
2019-03-28T04:11:15.812Z,13.03
2019-03-28T04:16:21.407Z,13.17
2019-03-28T04:21:26.825Z,13.33
2019-03-28T04:26:32.099Z,13.00
2019-03-28T04:31:37.346Z,11.70
2019-03-28T04:37:01.867Z,13.30
2019-03-28T04:42:07.110Z,13.10
2019-03-28T04:47:12.811Z,11.77
2019-03-28T04:52:18.203Z,11.87
2019-03-28T04:57:23.703Z,11.83
2019-03-28T05:02:29.012Z,11.80
2019-03-28T05:07:34.321Z,12.53
2019-03-28T05:12:39.652Z,12.77
2019-03-28T05:17:45.805Z,12.53
2019-03-28T05:22:51.352Z,15.73
2019-03-28T05:27:56.533Z,14.57
2019-03-28T05:33:01.780Z,13.90
2019-03-28T05:38:07.113Z,15.70
2019-03-28T05:43:12.332Z,13.27
2019-03-28T05:48:17.575Z,13.63
2019-03-28T05:53:22.742Z,16.23
2019-03-28T05:58:28.130Z,11.97
2019-03-28T06:03:33.301Z,11.80
2019-03-28T06:08:38.409Z,11.83
2019-03-28T06:13:43.385Z,9.90
2019-03-28T06:18:48.782Z,12.63
2019-03-28T06:23:54.125Z,9.30
2019-03-28T06:28:59.565Z,8.80
2019-03-28T06:34:04.463Z,8.37
2019-03-28T06:39:10.848Z,7.27
2019-03-28T06:44:16.085Z,7.57
2019-03-28T06:49:21.276Z,6.83
2019-03-28T06:54:26.388Z,6.90
2019-03-28T06:59:37.209Z,6.57
2019-03-28T07:04:38.431Z,7.60
2019-03-28T07:09:44.256Z,8.77
2019-03-28T07:14:49.514Z,7.43
2019-03-28T07:19:54.422Z,7.67
2019-03-28T07:24:59.714Z,7.53
2019-03-28T07:30:08.139Z,7.70
2019-03-28T07:35:13.348Z,7.63
2019-03-28T07:40:18.472Z,8.73
2019-03-28T07:45:23.335Z,6.27
2019-03-28T07:50:28.424Z,6.33
2019-03-28T07:55:33.659Z,8.73
2019-03-28T08:00:38.813Z,7.73
2019-03-28T08:05:44.039Z,7.90
2019-03-28T08:11:00.779Z,7.37
2019-03-28T08:16:05.960Z,8.37
2019-03-28T08:21:11.098Z,6.63
2019-03-28T08:26:16.502Z,8.07
2019-03-28T08:31:22.498Z,7.47
2019-03-28T08:36:28.747Z,8.03
2019-03-28T08:41:33.895Z,6.57
2019-03-28T08:46:39.207Z,6.97
2019-03-28T08:51:44.315Z,7.07
2019-03-28T08:56:49.339Z,8.30
2019-03-28T09:01:54.583Z,7.07
2019-03-28T09:06:59.698Z,8.60
2019-03-28T09:12:04.850Z,7.53
2019-03-28T09:17:10.000Z,7.00
2019-03-28T09:22:15.095Z,6.53
2019-03-28T09:27:20.291Z,7.87
2019-03-28T09:32:25.222Z,7.00
2019-03-28T09:37:30.369Z,6.67
2019-03-28T09:42:54.571Z,7.07
2019-03-28T09:47:59.993Z,6.87
2019-03-28T09:53:05.386Z,8.63
2019-03-28T09:58:10.546Z,10.53
2019-03-28T10:03:15.939Z,7.97
2019-03-28T10:08:21.036Z,7.73
2019-03-28T10:13:26.319Z,8.80
2019-03-28T10:18:31.491Z,6.93
2019-03-28T10:23:39.611Z,6.00
2019-03-28T10:28:43.236Z,6.20
2019-03-28T10:33:48.373Z,6.00
2019-03-28T10:38:53.300Z,5.83
2019-03-28T10:43:58.197Z,6.07
2019-03-28T10:49:03.564Z,6.67
2019-03-28T10:54:19.242Z,7.10
2019-03-28T10:59:23.306Z,7.63
2019-03-28T11:04:22.564Z,8.37
2019-03-28T11:09:27.760Z,8.67
2019-03-28T11:14:32.762Z,7.73
2019-03-28T11:19:37.674Z,8.67
2019-03-28T11:24:46.073Z,8.57
2019-03-28T11:29:49.333Z,9.20
2019-03-28T11:34:54.491Z,7.40
2019-03-28T11:39:59.642Z,5.80
2019-03-28T11:45:09.484Z,6.90
2019-03-28T11:50:17.147Z,6.43
2019-03-28T11:55:21.870Z,6.87
2019-03-28T12:00:26.971Z,7.00
2019-03-28T12:05:31.925Z,7.70
2019-03-28T12:10:37.264Z,7.43
2019-03-28T12:15:42.550Z,7.33
2019-03-28T12:20:47.904Z,6.80
2019-03-28T12:25:54.464Z,6.90
2019-03-28T12:30:59.558Z,6.43
2019-03-28T12:36:04.543Z,6.40
2019-03-28T12:41:09.772Z,6.60
2019-03-28T12:46:14.872Z,6.37
2019-03-28T12:51:22.133Z,5.00
2019-03-28T12:56:26.633Z,5.10
2019-03-28T13:01:31.690Z,5.10
2019-03-28T13:06:36.776Z,4.33
2019-03-28T13:11:41.936Z,3.80
2019-03-28T13:16:46.875Z,3.80
2019-03-28T13:21:52.140Z,3.63
2019-03-28T13:26:57.443Z,4.30
2019-03-28T13:32:02.679Z,4.10
2019-03-28T13:37:08.068Z,4.93
2019-03-28T13:42:13.219Z,4.07
2019-03-28T13:47:18.438Z,4.57
2019-03-28T13:52:23.595Z,4.70
2019-03-28T13:57:29.659Z,5.87
2019-03-28T14:02:34.936Z,4.70
2019-03-28T14:07:40.451Z,3.47
2019-03-28T14:12:45.721Z,5.30
2019-03-28T14:17:50.880Z,5.90
2019-03-28T14:22:56.175Z,4.57
2019-03-28T14:28:01.759Z,4.20
2019-03-28T14:33:11.436Z,4.37
2019-03-28T14:38:13.986Z,4.17
2019-03-28T14:43:19.339Z,3.40
2019-03-28T14:48:24.721Z,4.30
2019-03-28T14:53:29.847Z,3.07
2019-03-28T14:58:37.806Z,3.10
2019-03-28T15:03:43.093Z,2.07
2019-03-28T15:08:48.228Z,2.20
2019-03-28T15:13:54.022Z,3.47
2019-03-28T15:18:59.182Z,2.60
2019-03-28T15:24:05.379Z,2.70
2019-03-28T15:29:10.921Z,2.90
2019-03-28T15:34:16.309Z,2.63
2019-03-28T15:39:21.724Z,3.17
2019-03-28T15:44:27.201Z,2.30
2019-03-28T15:49:32.506Z,2.73
2019-03-28T15:54:38.469Z,2.20
2019-03-28T15:59:43.760Z,2.30
2019-03-28T16:04:49.286Z,2.60
2019-03-28T16:09:54.711Z,2.90
2019-03-28T16:15:00.293Z,2.57
2019-03-28T16:20:07.705Z,3.03
2019-03-28T16:25:13.114Z,3.00
2019-03-28T16:30:21.357Z,2.97
2019-03-28T16:35:26.802Z,2.53
2019-03-28T16:40:32.039Z,3.03
2019-03-28T16:45:37.443Z,3.10
2019-03-28T16:50:42.715Z,2.60
2019-03-28T16:55:47.962Z,2.33
2019-03-28T17:00:53.476Z,3.60
2019-03-28T17:06:00.461Z,7.10
2019-03-28T17:11:06.258Z,6.90
2019-03-28T17:16:11.811Z,7.83
2019-03-28T17:21:18.195Z,6.80
2019-03-28T17:26:23.193Z,8.23
2019-03-28T17:31:28.364Z,12.27
2019-03-28T17:36:33.676Z,26.27
2019-03-28T17:41:39.064Z,14.33
2019-03-28T17:46:44.807Z,16.77
2019-03-28T17:51:50.286Z,18.47
2019-03-28T17:56:55.567Z,19.03
2019-03-28T18:02:00.527Z,15.53
2019-03-28T18:07:05.858Z,22.33
2019-03-28T18:12:12.090Z,17.97
2019-03-28T18:17:17.403Z,18.73
2019-03-28T18:22:22.848Z,14.40
2019-03-28T18:27:28.011Z,14.27
2019-03-28T18:32:32.983Z,20.60
2019-03-28T18:37:38.158Z,17.20
2019-03-28T18:42:43.340Z,15.90
2019-03-28T18:47:48.632Z,18.40
2019-03-28T18:52:53.934Z,24.37
2019-03-28T18:57:59.054Z,25.07
2019-03-28T19:03:04.226Z,25.73
2019-03-28T19:08:09.441Z,22.63
2019-03-28T19:13:14.539Z,25.60
2019-03-28T19:18:19.464Z,20.63
2019-03-28T19:23:24.944Z,23.70
2019-03-28T19:28:30.170Z,20.60
2019-03-28T19:33:38.125Z,28.97
2019-03-28T19:38:42.800Z,33.37
2019-03-28T19:43:48.455Z,26.83
2019-03-28T19:48:53.447Z,37.53
2019-03-28T19:53:58.774Z,28.47
2019-03-28T19:59:03.764Z,24.30
2019-03-28T20:04:08.795Z,22.07
2019-03-28T20:09:16.313Z,45.63
2019-03-28T20:14:20.744Z,23.57
2019-03-28T20:19:29.089Z,20.90
2019-03-28T20:24:35.899Z,23.90
2019-03-28T20:29:41.263Z,19.60
2019-03-28T20:35:10.745Z,19.87
2019-03-28T20:40:16.448Z,20.13
2019-03-28T20:45:22.064Z,20.67
2019-03-28T20:50:31.212Z,20.10
2019-03-28T20:55:34.368Z,16.33
2019-03-28T21:00:47.852Z,20.67
2019-03-28T21:05:53.094Z,20.67
2019-03-28T21:10:59.730Z,23.70
2019-03-28T21:16:05.133Z,29.23
2019-03-28T21:21:10.294Z,27.83
2019-03-28T21:26:15.566Z,24.73
2019-03-28T21:31:20.480Z,23.23
2019-03-28T21:36:30.087Z,24.90
2019-03-28T21:41:32.646Z,29.03
2019-03-28T21:46:37.968Z,28.17
2019-03-28T21:51:45.772Z,23.27
2019-03-28T21:56:50.070Z,25.33
2019-03-28T22:01:55.458Z,32.70
2019-03-28T22:07:00.650Z,25.03
2019-03-28T22:12:05.811Z,31.77
2019-03-28T22:17:10.932Z,28.80
2019-03-28T22:22:16.057Z,33.03
2019-03-28T22:27:21.175Z,33.63
2019-03-28T22:32:26.289Z,26.87
2019-03-28T22:37:31.496Z,40.03
2019-03-28T22:42:36.718Z,28.10
2019-03-28T22:47:42.259Z,38.33
2019-03-28T22:52:48.708Z,31.57
2019-03-28T22:57:54.162Z,37.90
2019-03-28T23:02:59.678Z,32.13
2019-03-28T23:08:05.096Z,35.83
2019-03-28T23:13:10.658Z,35.70
2019-03-28T23:18:16.163Z,25.37
2019-03-28T23:23:21.829Z,31.40
2019-03-28T23:28:27.199Z,31.80
2019-03-28T23:33:32.566Z,30.13
2019-03-28T23:38:37.993Z,26.90
2019-03-28T23:43:43.033Z,33.77
2019-03-28T23:48:48.247Z,26.57
2019-03-28T23:53:54.491Z,35.23
2019-03-28T23:58:59.820Z,30.07
